Time;durP1;ratioP1;P1;durP2;ratioP2;P2;SDS_P1;SDS_P2;PMS_P1;PMS_P2;Temp;Humidity;BMP_temperature;BMP_pressure;BME280_temperature;BME280_humidity;BME280_pressure;Samples;Min_cycle;Max_cycle;Signal;HPM_P1;HPM_P2
2022/05/01 00:01:54;;;;;;;18.90;13.50;;;23.80;99.90;;;;;;5031605;28;20040;-56
2022/05/01 00:04:20;;;;;;;18.55;13.98;;;23.80;99.90;;;;;;5034203;28;20026;-57
2022/05/01 00:06:46;;;;;;;17.98;13.68;;;23.80;99.90;;;;;;5034117;28;20021;-56
2022/05/01 00:09:12;;;;;;;19.25;13.40;;;23.80;99.90;;;;;;5030095;28;20025;-56
2022/05/01 00:11:38;;;;;;;24.48;14.10;;;23.80;99.90;;;;;;5029391;28;20124;-58
2022/05/01 00:14:04;;;;;;;19.20;13.23;;;23.80;99.90;;;;;;5032877;28;20100;-56
2022/05/01 00:16:49;;;;;;;21.05;13.43;;;23.80;99.90;;;;;;5032263;28;20461;-58
2022/05/01 00:19:15;;;;;;;16.05;11.63;;;23.80;99.90;;;;;;5026341;28;20507;-56
2022/05/01 00:21:41;;;;;;;19.88;13.93;;;23.80;99.90;;;;;;5015426;28;20029;-56
2022/05/01 00:24:07;;;;;;;16.63;12.27;;;23.80;99.90;;;;;;5030792;28;20448;-56
2022/05/01 00:26:34;;;;;;;19.08;12.90;;;23.80;99.90;;;;;;5032875;28;20029;-57
2022/05/01 00:29:05;;;;;;;19.88;11.77;;;23.80;99.90;;;;;;5033867;28;20021;-60
2022/05/01 00:31:31;;;;;;;16.90;11.82;;;23.80;99.90;;;;;;5033237;28;20120;-56
2022/05/01 00:36:41;;;;;;;16.15;12.07;;;23.80;99.90;;;;;;5033954;28;20055;-56
2022/05/01 00:39:08;;;;;;;17.08;11.25;;;23.80;99.90;;;;;;5032818;28;20082;-56
2022/05/01 00:41:35;;;;;;;25.15;13.23;;;23.80;99.90;;;;;;5033372;28;20026;-56
2022/05/01 00:44:03;;;;;;;;;;;23.80;99.90;;;;;;5033993;28;20022;-56
2022/05/01 00:46:51;;;;;;;16.92;11.98;;;23.80;99.90;;;;;;5032956;28;19932;-56
2022/05/01 00:49:20;;;;;;;14.02;11.23;;;23.80;99.90;;;;;;5033463;28;20059;-56
2022/05/01 00:51:47;;;;;;;16.40;12.20;;;23.80;99.90;;;;;;5033312;28;20397;-56
2022/05/01 00:54:18;;;;;;;18.77;12.33;;;23.70;99.90;;;;;;5032966;28;20026;-56
2022/05/01 00:56:48;;;;;;;17.88;12.50;;;23.70;99.90;;;;;;5033287;28;20036;-56
2022/05/01 00:59:15;;;;;;;17.60;12.57;;;23.70;99.90;;;;;;5033760;28;20013;-56
2022/05/01 01:01:45;;;;;;;17.58;12.18;;;23.70;99.90;;;;;;5025968;28;20061;-55
2022/05/01 01:04:11;;;;;;;18.83;11.85;;;23.70;99.90;;;;;;5022492;28;20432;-58
2022/05/01 01:06:38;;;;;;;30.95;12.25;;;23.70;99.90;;;;;;5015291;28;20175;-56
2022/05/01 01:09:22;;;;;;;15.90;11.98;;;23.70;99.90;;;;;;5032704;28;20473;-58
2022/05/01 01:12:53;;;;;;;16.17;12.13;;;23.70;99.90;;;;;;5032875;28;20093;-54
2022/05/01 01:14:34;;;;;;;16.52;11.85;;;23.70;99.90;;;;;;5032486;28;20029;-54
2022/05/01 01:17:00;;;;;;;17.77;12.18;;;23.70;99.90;;;;;;5023353;28;20076;-54
2022/05/01 01:19:25;;;;;;;16.17;12.20;;;23.70;99.90;;;;;;5027930;28;20424;-54
2022/05/01 01:22:10;;;;;;;20.30;11.25;;;23.70;99.90;;;;;;5033014;28;20047;-54
2022/05/01 01:24:43;;;;;;;15.85;11.60;;;23.70;99.90;;;;;;5031692;28;20032;-58
2022/05/01 01:27:10;;;;;;;16.63;11.98;;;23.70;99.90;;;;;;5032661;28;20033;-57
2022/05/01 01:32:25;;;;;;;17.08;11.90;;;23.70;99.90;;;;;;5032687;28;20568;-56
2022/05/01 01:34:53;;;;;;;17.25;10.77;;;23.70;99.90;;;;;;5032600;28;20017;-56
2022/05/01 01:37:19;;;;;;;;;;;23.70;99.90;;;;;;5015335;28;20084;-56
2022/05/01 01:39:46;;;;;;;13.90;11.00;;;23.70;99.90;;;;;;5032466;28;19909;-56
2022/05/01 01:42:15;;;;;;;17.65;10.30;;;23.70;99.90;;;;;;5032341;28;20247;-56
2022/05/01 01:44:41;;;;;;;19.55;11.88;;;23.70;99.90;;;;;;5032083;28;20037;-56
2022/05/01 01:47:07;;;;;;;15.50;11.25;;;23.60;99.90;;;;;;5032346;28;20019;-57
2022/05/01 01:49:33;;;;;;;17.35;11.93;;;23.70;99.90;;;;;;5032443;28;20492;-56
2022/05/01 01:51:59;;;;;;;16.92;11.85;;;23.70;99.90;;;;;;5034944;28;20075;-56
2022/05/01 01:54:24;;;;;;;15.85;12.73;;;23.70;99.90;;;;;;5027322;28;20114;-56
2022/05/01 01:56:50;;;;;;;19.38;11.55;;;23.70;99.90;;;;;;5031800;28;20052;-56
2022/05/01 01:59:16;;;;;;;15.02;11.10;;;23.70;99.90;;;;;;5032049;28;20021;-56
2022/05/01 02:01:43;;;;;;;14.82;11.93;;;23.70;99.90;;;;;;5025938;28;20056;-56
2022/05/01 02:04:10;;;;;;;15.95;11.48;;;23.70;99.90;;;;;;5025207;28;20030;-55
2022/05/01 02:06:37;;;;;;;16.20;11.90;;;23.70;99.90;;;;;;5031416;28;20029;-56
2022/05/01 02:09:06;;;;;;;18.55;12.90;;;23.60;99.90;;;;;;5030148;28;20566;-56
2022/05/01 02:11:34;;;;;;;17.83;11.88;;;23.60;99.90;;;;;;5016300;28;20293;-56
2022/05/01 02:13:59;;;;;;;18.23;11.68;;;23.60;99.90;;;;;;5025432;28;20033;-56
2022/05/01 02:16:25;;;;;;;17.10;12.23;;;23.60;99.90;;;;;;5011570;28;20497;-56
2022/05/01 02:18:51;;;;;;;14.57;12.25;;;23.60;99.90;;;;;;5011284;28;20113;-56
2022/05/01 02:21:35;;;;;;;22.17;13.55;;;23.60;99.90;;;;;;5010753;28;20261;-55
2022/05/01 02:24:12;;;;;;;18.40;12.15;;;23.60;99.90;;;;;;5009126;28;20032;-55
2022/05/01 02:26:38;;;;;;;;;;;23.60;99.90;;;;;;5010680;28;20044;-55
2022/05/01 02:29:10;;;;;;;14.60;10.90;;;23.60;99.90;;;;;;5015834;28;20266;-55
2022/05/01 02:31:41;;;;;;;21.60;12.32;;;23.50;99.90;;;;;;5008502;28;20440;-55
2022/05/01 02:34:26;;;;;;;20.77;12.90;;;23.60;99.90;;;;;;5016143;28;20466;-55
2022/05/01 02:36:52;;;;;;;18.00;12.13;;;23.60;99.90;;;;;;5027587;28;20588;-55
2022/05/01 02:39:22;;;;;;;16.45;12.60;;;23.50;99.90;;;;;;5016855;28;20028;-55
2022/05/01 02:41:48;;;;;;;22.90;13.32;;;23.50;99.90;;;;;;5031410;28;20038;-55
2022/05/01 02:44:14;;;;;;;19.55;12.43;;;23.50;99.90;;;;;;5031571;28;20477;-55
2022/05/01 02:46:39;;;;;;;18.92;12.30;;;23.50;99.90;;;;;;5031442;28;20025;-55
2022/05/01 02:49:05;;;;;;;17.33;12.30;;;23.50;99.90;;;;;;5031232;28;20021;-55
2022/05/01 02:51:52;;;;;;;17.15;12.48;;;23.50;99.90;;;;;;5031126;28;20504;-55
2022/05/01 02:54:18;;;;;;;18.63;13.27;;;23.50;99.90;;;;;;5031277;28;20053;-55
2022/05/01 02:56:44;;;;;;;19.23;12.75;;;23.50;99.90;;;;;;5031452;28;20461;-55
2022/05/01 02:59:10;;;;;;;19.17;13.02;;;23.50;99.90;;;;;;5031883;28;20037;-55
2022/05/01 03:01:36;;;;;;;18.95;12.90;;;23.50;99.90;;;;;;5031154;28;20061;-55
2022/05/01 03:04:03;;;;;;;16.02;12.57;;;23.50;99.90;;;;;;5030876;28;20470;-55
2022/05/01 03:06:29;;;;;;;15.80;12.65;;;23.50;99.90;;;;;;5031099;28;20022;-55
2022/05/01 03:08:55;;;;;;;17.63;13.25;;;23.50;99.90;;;;;;5031098;28;20116;-55
2022/05/01 03:11:21;;;;;;;16.85;12.15;;;23.50;99.90;;;;;;5031051;28;20109;-55
2022/05/01 03:13:47;;;;;;;17.85;12.43;;;23.50;99.90;;;;;;5031042;28;20021;-55
2022/05/01 03:16:13;;;;;;;18.70;12.73;;;23.50;99.90;;;;;;5031140;28;20036;-55
2022/05/01 03:24:09;;;;;;;16.20;12.82;;;23.40;99.90;;;;;;5031111;28;20041;-55
2022/05/01 03:26:35;;;;;;;19.77;13.38;;;23.50;99.90;;;;;;5031025;28;20017;-55
2022/05/01 03:29:01;;;;;;;18.48;13.18;;;23.40;99.90;;;;;;5030887;28;20036;-55
2022/05/01 03:31:28;;;;;;;19.33;13.07;;;23.40;99.90;;;;;;5030750;28;20081;-55
2022/05/01 03:33:56;;;;;;;16.98;12.77;;;23.40;99.90;;;;;;5030779;28;20392;-55
2022/05/01 03:36:22;;;;;;;15.93;12.05;;;23.40;99.90;;;;;;5030778;28;20029;-54
2022/05/01 03:38:48;;;;;;;18.38;13.50;;;23.40;99.90;;;;;;5030743;28;20033;-54
2022/05/01 03:41:16;;;;;;;16.30;11.93;;;23.40;99.90;;;;;;5030914;28;20105;-55
2022/05/01 03:44:00;;;;;;;17.70;11.82;;;23.40;99.90;;;;;;5030797;28;20046;-54
2022/05/01 03:49:10;;;;;;;16.45;12.68;;;23.40;99.90;;;;;;5030833;28;20385;-54
2022/05/01 03:51:36;;;;;;;16.27;12.35;;;23.40;99.90;;;;;;5030547;28;20038;-54
2022/05/01 03:54:03;;;;;;;18.52;12.82;;;23.40;99.90;;;;;;5030612;28;20029;-54
2022/05/01 03:56:35;;;;;;;16.42;12.50;;;23.40;99.90;;;;;;5030667;28;20022;-54
2022/05/01 03:59:04;;;;;;;18.75;11.70;;;23.30;99.90;;;;;;5030562;28;20032;-56
2022/05/01 04:01:33;;;;;;;18.95;12.57;;;23.40;99.90;;;;;;5031583;28;20057;-56
2022/05/01 04:04:19;;;;;;;17.65;13.00;;;23.40;99.90;;;;;;5030490;28;20072;-56
2022/05/01 04:06:45;;;;;;;16.42;12.25;;;23.40;99.90;;;;;;5030810;28;20025;-55
2022/05/01 04:09:12;;;;;;;19.55;12.23;;;23.40;99.90;;;;;;5030417;28;20523;-54
2022/05/01 04:11:38;;;;;;;16.05;12.73;;;23.30;99.90;;;;;;5030501;28;20389;-55
2022/05/01 04:14:03;;;;;;;18.67;13.70;;;23.30;99.90;;;;;;5030515;28;20029;-55
2022/05/01 04:16:29;;;;;;;19.05;13.10;;;23.30;99.90;;;;;;5033669;28;20025;-55
2022/05/01 04:18:55;;;;;;;17.60;12.73;;;23.30;99.90;;;;;;5033969;28;20465;-55
2022/05/01 04:21:21;;;;;;;15.93;12.55;;;23.30;99.90;;;;;;5033798;28;20021;-54
2022/05/01 04:23:47;;;;;;;17.75;12.38;;;23.30;99.90;;;;;;5033991;28;20048;-55
2022/05/01 04:26:13;;;;;;;13.65;11.30;;;23.30;99.90;;;;;;5033942;28;20458;-55
2022/05/01 04:31:42;;;;;;;17.38;13.27;;;23.30;99.90;;;;;;5033753;28;20032;-56
2022/05/01 04:34:26;;;;;;;15.10;12.40;;;23.30;99.90;;;;;;5033734;28;20030;-56
2022/05/01 04:36:51;;;;;;;16.23;13.05;;;23.30;99.90;;;;;;5033679;28;20026;-55
2022/05/01 04:39:17;;;;;;;15.85;12.35;;;23.30;99.90;;;;;;5033667;28;20025;-56
2022/05/01 04:41:43;;;;;;;17.02;13.02;;;23.30;99.90;;;;;;5033634;28;20477;-56
2022/05/01 04:44:10;;;;;;;14.02;11.55;;;23.30;99.90;;;;;;5033734;28;20350;-56
2022/05/01 04:46:36;;;;;;;17.47;11.97;;;23.30;99.90;;;;;;5033412;28;20131;-56
2022/05/01 04:49:03;;;;;;;16.20;12.20;;;23.30;99.90;;;;;;5033368;28;20263;-55
2022/05/01 04:51:28;;;;;;;15.52;11.90;;;23.30;99.90;;;;;;5033282;28;20054;-55
2022/05/01 04:53:54;;;;;;;16.58;13.48;;;23.30;99.90;;;;;;5033289;28;20013;-55
2022/05/01 04:59:07;;;;;;;15.05;11.98;;;23.30;99.90;;;;;;5033301;28;20099;-55
2022/05/01 05:01:35;;;;;;;17.60;13.15;;;23.30;99.90;;;;;;5033287;28;20108;-55
2022/05/01 05:04:01;;;;;;;;;;;23.30;99.90;;;;;;5033591;28;20037;-55
2022/05/01 05:06:26;;;;;;;16.02;11.93;;;23.30;99.90;;;;;;5032918;28;20345;-55
2022/05/01 05:11:36;;;;;;;15.05;11.48;;;23.20;99.90;;;;;;5033051;28;20044;-55
2022/05/01 05:14:04;;;;;;;14.05;11.05;;;23.20;99.90;;;;;;5033061;28;20034;-55
2022/05/01 05:16:30;;;;;;;15.95;11.50;;;23.20;99.90;;;;;;5032937;28;20461;-55
2022/05/01 05:18:56;;;;;;;15.65;11.43;;;23.20;99.90;;;;;;5032927;28;20031;-55
2022/05/01 05:21:22;;;;;;;14.57;11.07;;;23.20;99.90;;;;;;5031783;28;20100;-55
2022/05/01 05:23:48;;;;;;;17.20;11.23;;;23.20;99.90;;;;;;5032892;28;20397;-55
2022/05/01 05:26:14;;;;;;;14.88;11.57;;;23.20;99.90;;;;;;5032605;28;20104;-55
2022/05/01 05:28:40;;;;;;;16.30;12.38;;;23.20;99.90;;;;;;5032897;28;20026;-54
2022/05/01 05:31:06;;;;;;;14.93;11.18;;;23.20;99.90;;;;;;5032488;28;20037;-55
2022/05/01 05:33:32;;;;;;;17.15;12.20;;;23.20;99.90;;;;;;5032657;28;20489;-55
2022/05/01 05:35:58;;;;;;;20.25;12.88;;;23.20;99.90;;;;;;5032520;28;20034;-54
2022/05/01 05:38:24;;;;;;;16.13;11.45;;;23.20;99.90;;;;;;5032450;28;20021;-55
2022/05/01 05:40:49;;;;;;;16.08;11.45;;;23.20;99.90;;;;;;5032650;28;20374;-54
2022/05/01 05:43:15;;;;;;;15.02;11.07;;;23.20;99.90;;;;;;5032313;28;20025;-55
2022/05/01 05:45:41;;;;;;;15.05;11.50;;;23.20;99.90;;;;;;5032280;28;20029;-54
2022/05/01 05:48:07;;;;;;;16.23;12.05;;;23.20;99.90;;;;;;5030989;28;20057;-55
2022/05/01 05:50:32;;;;;;;14.65;10.82;;;23.20;99.90;;;;;;5032220;28;20033;-54
2022/05/01 05:52:58;;;;;;;16.02;11.57;;;23.20;99.90;;;;;;5032198;28;20041;-55
2022/05/01 05:55:24;;;;;;;18.33;11.18;;;23.20;99.90;;;;;;5032195;28;20025;-54
2022/05/01 05:57:50;;;;;;;14.40;10.68;;;23.20;99.90;;;;;;5032270;28;20025;-55
2022/05/01 06:00:35;;;;;;;15.75;11.38;;;23.20;99.90;;;;;;5031416;28;20068;-54
2022/05/01 06:03:01;;;;;;;16.75;12.25;;;23.20;99.90;;;;;;5032048;28;20037;-54
2022/05/01 06:05:27;;;;;;;14.77;11.30;;;23.20;99.90;;;;;;5031890;28;20481;-55
2022/05/01 06:07:53;;;;;;;14.40;10.45;;;23.20;99.90;;;;;;5032192;28;20083;-54
2022/05/01 06:10:18;;;;;;;16.02;11.35;;;23.20;99.90;;;;;;5031923;28;20024;-55
2022/05/01 06:12:44;;;;;;;15.32;10.27;;;23.20;99.90;;;;;;5031838;28;20037;-56
2022/05/01 06:15:10;;;;;;;14.48;10.82;;;23.20;99.90;;;;;;5031979;28;20099;-54
2022/05/01 06:17:37;;;;;;;16.13;10.25;;;23.20;99.90;;;;;;5031804;28;20037;-54
2022/05/01 06:20:04;;;;;;;13.90;10.38;;;23.20;99.90;;;;;;5030458;28;20499;-54
2022/05/01 06:22:30;;;;;;;13.55;10.93;;;23.20;99.90;;;;;;5031625;28;20052;-54
2022/05/01 06:24:56;;;;;;;12.75;10.15;;;23.20;99.90;;;;;;5031657;28;20018;-54
2022/05/01 06:27:21;;;;;;;12.45;10.02;;;23.20;99.90;;;;;;5031818;28;20091;-55
2022/05/01 06:29:47;;;;;;;13.15;10.93;;;23.20;99.90;;;;;;5031630;28;20021;-55
2022/05/01 06:32:18;;;;;;;12.95;10.10;;;23.20;99.90;;;;;;5031467;28;20036;-56
2022/05/01 06:34:45;;;;;;;15.27;10.40;;;23.20;99.90;;;;;;5031553;28;20044;-55
2022/05/01 06:37:12;;;;;;;15.00;10.27;;;23.20;99.90;;;;;;5031027;28;20030;-55
2022/05/01 06:39:38;;;;;;;13.25;10.02;;;23.20;99.90;;;;;;5031418;28;20025;-55
2022/05/01 06:42:05;;;;;;;13.52;10.45;;;23.30;99.90;;;;;;5031211;28;20366;-54
2022/05/01 06:44:31;;;;;;;13.50;9.73;;;23.30;99.90;;;;;;5031494;28;20022;-55
2022/05/01 06:46:57;;;;;;;12.48;9.35;;;23.30;99.90;;;;;;5031177;28;20041;-55
2022/05/01 06:49:23;;;;;;;16.88;10.52;;;23.30;99.90;;;;;;5031508;28;20108;-55
2022/05/01 06:51:49;;;;;;;14.25;11.02;;;23.20;99.90;;;;;;5029998;28;20499;-55
2022/05/01 06:54:14;;;;;;;11.98;9.52;;;23.30;99.90;;;;;;5031260;28;20025;-55
2022/05/01 06:56:41;;;;;;;12.50;9.48;;;23.30;99.90;;;;;;5031145;28;20034;-55
2022/05/01 06:59:07;;;;;;;14.63;11.70;;;23.20;99.90;;;;;;5030968;28;20143;-55
2022/05/01 07:01:33;;;;;;;13.30;10.60;;;23.30;99.90;;;;;;5031115;28;20124;-55
2022/05/01 07:03:58;;;;;;;13.27;10.43;;;23.30;99.90;;;;;;5031122;28;20022;-55
2022/05/01 07:06:24;;;;;;;14.05;10.43;;;23.30;99.90;;;;;;5031189;28;20018;-55
2022/05/01 07:08:50;;;;;;;15.63;11.10;;;23.30;99.90;;;;;;5031152;28;20029;-55
2022/05/01 07:11:16;;;;;;;13.75;10.63;;;23.30;99.90;;;;;;5030850;28;20477;-55
2022/05/01 07:14:00;;;;;;;14.75;10.68;;;23.30;99.90;;;;;;5031046;28;20030;-54
2022/05/01 07:16:26;;;;;;;13.35;10.68;;;23.30;99.90;;;;;;5031269;28;20028;-54
2022/05/01 07:18:51;;;;;;;13.10;9.77;;;23.30;99.90;;;;;;5031077;28;20425;-54
2022/05/01 07:21:18;;;;;;;14.48;11.43;;;23.30;99.90;;;;;;5030928;28;20495;-54
2022/05/01 07:23:45;;;;;;;12.02;9.85;;;23.40;99.90;;;;;;5030930;28;20068;-54
2022/05/01 07:26:10;;;;;;;13.70;10.85;;;23.40;99.90;;;;;;5031091;28;20425;-54
2022/05/01 07:28:36;;;;;;;12.85;9.88;;;23.30;99.90;;;;;;5030885;28;20029;-54
2022/05/01 07:31:05;;;;;;;11.75;9.55;;;23.30;99.90;;;;;;5030848;28;20497;-54
2022/05/01 07:33:30;;;;;;;12.80;10.02;;;23.40;99.90;;;;;;5030758;28;20132;-54
2022/05/01 07:35:58;;;;;;;14.57;10.15;;;23.40;99.90;;;;;;5030961;28;20029;-54
2022/05/01 07:38:24;;;;;;;12.93;10.25;;;23.40;99.90;;;;;;5030857;28;20025;-54
2022/05/01 07:40:50;;;;;;;11.55;9.05;;;23.40;99.90;;;;;;5030750;28;20513;-55
2022/05/01 07:43:15;;;;;;;11.68;9.57;;;23.40;99.90;;;;;;5030634;28;20033;-55
2022/05/01 07:45:43;;;;;;;13.43;9.30;;;23.40;99.90;;;;;;5030597;28;20140;-55
2022/05/01 07:48:09;;;;;;;11.35;8.60;;;23.40;99.90;;;;;;5030798;28;20036;-55
2022/05/01 07:50:34;;;;;;;12.48;9.32;;;23.40;99.90;;;;;;5032699;28;20109;-55
2022/05/01 07:53:00;;;;;;;14.10;9.65;;;23.40;99.90;;;;;;5034492;28;20503;-55
2022/05/01 07:55:26;;;;;;;13.60;9.55;;;23.40;99.90;;;;;;5034476;28;20100;-55
2022/05/01 07:57:52;;;;;;;9.98;8.70;;;23.40;99.90;;;;;;5034125;28;20428;-55
2022/05/01 08:00:18;;;;;;;11.80;8.40;;;23.40;99.90;;;;;;5033969;28;20103;-56
2022/05/01 08:05:46;;;;;;;11.48;8.68;;;23.40;99.90;;;;;;5034582;28;20056;-55
2022/05/01 08:08:12;;;;;;;10.70;8.90;;;23.40;99.90;;;;;;5034125;28;20017;-55
2022/05/01 08:10:38;;;;;;;10.80;8.68;;;23.40;99.90;;;;;;5033966;28;20022;-57
2022/05/01 08:13:04;;;;;;;12.65;9.75;;;23.40;99.90;;;;;;5033897;28;20424;-56
2022/05/01 08:15:30;;;;;;;12.30;8.48;;;23.40;99.90;;;;;;5034308;28;20090;-57
2022/05/01 08:21:05;;;;;;;11.73;8.20;;;23.40;99.90;;;;;;5034162;28;20060;-57
2022/05/01 08:23:44;;;;;;;9.60;7.93;;;23.50;99.90;;;;;;5034190;28;20025;-56
2022/05/01 08:26:11;;;;;;;10.10;8.30;;;23.50;99.90;;;;;;5033902;28;20100;-56
2022/05/01 08:28:40;;;;;;;10.18;8.10;;;23.50;99.90;;;;;;5033718;28;20457;-56
2022/05/01 08:33:51;;;;;;;9.68;8.05;;;23.50;99.90;;;;;;5033920;28;20492;-56
2022/05/01 08:36:17;;;;;;;9.77;8.07;;;23.50;99.90;;;;;;5033686;28;20029;-56
2022/05/01 08:38:43;;;;;;;15.38;8.25;;;23.50;99.90;;;;;;5033722;28;20163;-56
2022/05/01 08:41:09;;;;;;;8.75;7.68;;;23.50;99.90;;;;;;5033431;28;20026;-56
2022/05/01 08:43:36;;;;;;;10.55;8.38;;;23.50;99.90;;;;;;5033511;28;20048;-56
2022/05/01 08:46:28;;;;;;;10.40;7.47;;;23.50;99.90;;;;;;5033750;28;20144;-56
2022/05/01 08:49:01;;;;;;;10.10;7.68;;;23.50;99.90;;;;;;5033522;28;20477;-56
2022/05/01 08:51:34;;;;;;;9.98;7.65;;;23.50;99.90;;;;;;5033546;28;20564;-56
2022/05/01 08:54:04;;;;;;;10.43;7.43;;;23.50;99.90;;;;;;5032369;28;20112;-56
2022/05/01 08:56:33;;;;;;;10.93;7.78;;;23.50;99.90;;;;;;5033565;28;20021;-56
2022/05/01 08:59:09;;;;;;;9.32;6.82;;;23.50;99.90;;;;;;5033308;28;20033;-56
2022/05/01 09:01:36;;;;;;;9.45;7.32;;;23.50;99.90;;;;;;5032753;28;20037;-56
2022/05/01 09:04:04;;;;;;;;;;;23.50;99.90;;;;;;5033860;28;20057;-56
2022/05/01 09:06:31;;;;;;;8.90;6.82;;;23.50;99.90;;;;;;5033260;28;20004;-56
2022/05/01 09:08:57;;;;;;;8.40;6.95;;;23.60;99.90;;;;;;5033163;28;20526;-56
2022/05/01 09:14:08;;;;;;;8.50;6.85;;;23.50;99.90;;;;;;5032918;28;20040;-56
2022/05/01 09:16:37;;;;;;;8.18;6.80;;;23.60;99.90;;;;;;5033100;28;20018;-56
2022/05/01 09:19:03;;;;;;;7.63;6.47;;;23.60;99.90;;;;;;5015656;28;20041;-56
2022/05/01 09:21:49;;;;;;;8.25;6.82;;;23.60;99.90;;;;;;5032737;28;20074;-55
2022/05/01 09:24:25;;;;;;;9.48;6.80;;;23.60;99.90;;;;;;5032626;28;20064;-56
2022/05/01 09:26:51;;;;;;;8.93;6.78;;;23.60;99.90;;;;;;5032801;28;20048;-56
2022/05/01 09:29:25;;;;;;;11.93;6.60;;;23.60;99.90;;;;;;5032767;28;20025;-56
2022/05/01 09:32:09;;;;;;;8.70;6.18;;;23.60;99.90;;;;;;5032342;28;20083;-55
2022/05/01 09:34:35;;;;;;;7.82;6.13;;;23.70;99.90;;;;;;5032627;28;20105;-56
2022/05/01 09:37:17;;;;;;;8.88;7.15;;;23.60;99.90;;;;;;5032751;28;20033;-55
2022/05/01 09:39:49;;;;;;;8.40;6.30;;;23.60;99.90;;;;;;5032495;28;20064;-56
2022/05/01 09:42:35;;;;;;;8.50;6.75;;;23.70;99.90;;;;;;5031096;28;20049;-56
2022/05/01 09:45:06;;;;;;;7.45;5.97;;;23.70;99.90;;;;;;5032278;28;20029;-56
2022/05/01 09:47:36;;;;;;;8.13;6.38;;;23.70;99.90;;;;;;5032592;28;20025;-56
2022/05/01 09:50:05;;;;;;;7.90;6.15;;;23.70;99.90;;;;;;5032539;28;20473;-56
2022/05/01 09:52:53;;;;;;;9.05;6.47;;;23.70;99.90;;;;;;5032129;28;20041;-56
2022/05/01 09:55:19;;;;;;;13.45;5.75;;;23.70;99.90;;;;;;5032246;28;20105;-56
2022/05/01 09:57:45;;;;;;;7.25;5.75;;;23.70;99.90;;;;;;5032006;28;20029;-56
2022/05/01 10:00:11;;;;;;;9.55;6.03;;;23.70;99.90;;;;;;5031851;28;20489;-56
2022/05/01 10:02:37;;;;;;;10.43;5.80;;;23.70;99.90;;;;;;5031994;28;20496;-56
2022/05/01 10:05:08;;;;;;;8.32;6.22;;;23.70;99.90;;;;;;5032195;28;20045;-56
2022/05/01 10:07:37;;;;;;;10.23;6.13;;;23.70;99.90;;;;;;5032154;28;20025;-55
2022/05/01 10:10:08;;;;;;;8.00;5.97;;;23.70;99.90;;;;;;5032092;28;20057;-56
2022/05/01 10:12:41;;;;;;;8.27;6.13;;;23.70;99.90;;;;;;5031101;28;20033;-56
2022/05/01 10:15:08;;;;;;;6.88;5.53;;;23.70;99.90;;;;;;5031858;28;20025;-55
2022/05/01 10:17:37;;;;;;;8.75;5.72;;;23.80;99.90;;;;;;5032162;28;20034;-55
2022/05/01 10:20:03;;;;;;;7.85;5.80;;;23.80;99.90;;;;;;5032002;28;20029;-56
2022/05/01 10:22:32;;;;;;;6.32;5.65;;;23.80;99.90;;;;;;5031643;28;20116;-56
2022/05/01 10:24:57;;;;;;;9.40;6.05;;;23.80;99.90;;;;;;5031524;28;20469;-55
2022/05/01 10:33:44;;;;;;;7.20;5.40;;;23.80;99.90;;;;;;5031487;28;20032;-58
2022/05/01 10:36:38;;;;;;;7.85;5.72;;;23.80;99.90;;;;;;5031619;28;20481;-56
2022/05/01 10:39:08;;;;;;;7.60;5.43;;;23.80;99.90;;;;;;5031298;28;20116;-56
2022/05/01 10:41:39;;;;;;;6.30;5.00;;;23.80;99.90;;;;;;5031505;28;20025;-56
2022/05/01 10:44:04;;;;;;;9.35;6.25;;;23.90;99.90;;;;;;5031553;28;20048;-56
2022/05/01 10:46:33;;;;;;;6.75;5.55;;;23.90;99.90;;;;;;5030125;28;20488;-56
2022/05/01 10:49:05;;;;;;;9.65;5.72;;;23.90;99.90;;;;;;5031177;28;20025;-55
2022/05/01 10:51:31;;;;;;;7.50;5.47;;;23.90;99.90;;;;;;5031158;28;20029;-56
2022/05/01 10:54:19;;;;;;;7.03;5.43;;;24.00;99.90;;;;;;5030921;28;20474;-56
2022/05/01 10:57:04;;;;;;;7.20;5.28;;;24.00;99.90;;;;;;5021731;28;20021;-55
2022/05/01 10:59:30;;;;;;;9.13;5.43;;;24.00;99.90;;;;;;5019525;28;20053;-56
2022/05/01 11:01:58;;;;;;;7.97;5.32;;;24.00;99.90;;;;;;5023343;28;20022;-55
2022/05/01 11:07:17;;;;;;;8.18;5.50;;;24.00;99.90;;;;;;5021722;28;20044;-55
2022/05/01 11:09:48;;;;;;;7.82;5.55;;;24.10;99.90;;;;;;5028632;28;20160;-55
2022/05/01 11:12:19;;;;;;;10.77;6.20;;;24.10;99.90;;;;;;5029981;28;20103;-59
2022/05/01 11:15:01;;;;;;;10.32;4.35;;;24.10;99.90;;;;;;5030566;28;20097;-55
2022/05/01 11:17:28;;;;;;;10.23;3.13;;;24.10;99.90;;;;;;5027183;28;20470;-54
2022/05/01 11:20:04;;;;;;;9.00;4.90;;;24.10;99.90;;;;;;5025739;28;20029;-55
2022/05/01 11:22:31;;;;;;;9.18;4.30;;;24.20;99.90;;;;;;5030729;28;20060;-55
2022/05/01 11:24:57;;;;;;;11.73;4.00;;;24.20;99.90;;;;;;5032311;28;20022;-54
2022/05/01 11:27:23;;;;;;;11.00;2.97;;;24.30;99.90;;;;;;5030160;28;20434;-54
2022/05/01 11:30:07;;;;;;;7.45;3.28;;;24.40;99.90;;;;;;5034466;28;20106;-54
2022/05/01 11:32:47;;;;;;;8.57;3.97;;;24.40;99.90;;;;;;5031924;28;20388;-52
2022/05/01 11:35:13;;;;;;;10.85;4.00;;;24.50;99.90;;;;;;5031094;28;20017;-55
2022/05/01 11:38:01;;;;;;;9.73;3.20;;;24.60;99.90;;;;;;5034611;28;20353;-55
2022/05/01 11:40:28;;;;;;;12.60;4.00;;;24.70;99.90;;;;;;5027111;28;20088;-55
2022/05/01 11:43:14;;;;;;;11.50;2.77;;;24.70;99.90;;;;;;5033287;28;20033;-54
2022/05/01 11:45:40;;;;;;;11.77;7.43;;;24.70;99.90;;;;;;5034456;28;20025;-55
2022/05/01 11:48:17;;;;;;;26.10;11.63;;;24.80;99.90;;;;;;5032098;28;20310;-55
2022/05/01 11:50:45;;;;;;;10.45;4.15;;;24.80;99.90;;;;;;5034836;28;20033;-54
2022/05/01 11:53:32;;;;;;;13.80;4.80;;;24.80;99.90;;;;;;5032067;28;20045;-55
2022/05/01 12:04:25;;;;;;;13.57;4.47;;;25.00;99.90;;;;;;5029771;28;20093;-56
2022/05/01 12:07:04;;;;;;;12.88;4.95;;;25.00;99.90;;;;;;5021253;28;20025;-56
2022/05/01 12:09:34;;;;;;;10.85;4.47;;;25.00;99.90;;;;;;5020748;28;20022;-56
2022/05/01 12:12:01;;;;;;;12.70;5.10;;;25.00;99.90;;;;;;5029637;28;20037;-58
2022/05/01 12:14:27;;;;;;;10.57;5.07;;;25.00;99.90;;;;;;5024513;28;20022;-56
2022/05/01 12:16:53;;;;;;;9.40;4.35;;;25.00;99.90;;;;;;5031595;28;20052;-57
2022/05/01 12:19:18;;;;;;;9.68;4.18;;;25.00;99.90;;;;;;5020323;28;20022;-56
2022/05/01 12:21:46;;;;;;;13.57;4.97;;;24.90;99.90;;;;;;5022262;28;20414;-55
2022/05/01 12:24:12;;;;;;;380.67;80.97;;;25.00;99.90;;;;;;5033775;28;20464;-56
2022/05/01 12:26:46;;;;;;;212.00;40.70;;;25.00;99.90;;;;;;5032336;28;20028;-56
2022/05/01 12:29:13;;;;;;;203.98;40.55;;;24.90;99.90;;;;;;5033618;28;20037;-56
2022/05/01 12:32:01;;;;;;;226.25;46.95;;;25.00;99.90;;;;;;5033788;28;20029;-56
2022/05/01 12:34:29;;;;;;;246.73;46.65;;;24.90;99.90;;;;;;5033698;28;20026;-56
2022/05/01 12:37:00;;;;;;;195.13;44.30;;;24.90;99.90;;;;;;5032950;28;20052;-56
2022/05/01 12:39:28;;;;;;;188.93;38.75;;;24.90;99.90;;;;;;5033815;28;20056;-56
2022/05/01 12:45:17;;;;;;;165.18;35.38;;;24.90;99.90;;;;;;5033698;28;20060;-56
2022/05/01 12:47:50;;;;;;;157.02;32.13;;;24.90;99.90;;;;;;5033758;28;20056;-56
2022/05/01 12:50:19;;;;;;;117.68;26.48;;;24.90;99.90;;;;;;5033487;28;20021;-62
2022/05/01 12:52:50;;;;;;;123.78;28.25;;;24.90;99.90;;;;;;5033474;28;20029;-57
2022/05/01 12:55:19;;;;;;;119.30;26.15;;;24.90;99.90;;;;;;5032763;28;20063;-55
2022/05/01 12:57:52;;;;;;;103.45;23.65;;;24.90;99.90;;;;;;5032631;28;20014;-55
2022/05/01 13:00:31;;;;;;;81.25;19.25;;;25.00;99.90;;;;;;5033231;28;20136;-55
2022/05/01 13:03:16;;;;;;;70.55;19.05;;;25.00;99.90;;;;;;5033353;28;20264;-55
2022/05/01 13:05:53;;;;;;;92.90;20.38;;;25.00;99.90;;;;;;5032246;28;20029;-55
2022/05/01 13:08:20;;;;;;;100.22;24.60;;;25.00;99.90;;;;;;5033189;28;20030;-55
2022/05/01 13:11:13;;;;;;;103.93;24.02;;;25.00;99.90;;;;;;5032121;28;20122;-55
2022/05/01 13:14:00;;;;;;;80.68;24.38;;;25.00;99.90;;;;;;5033301;28;20396;-55
2022/05/01 13:16:32;;;;;;;98.80;20.75;;;25.00;99.90;;;;;;5032007;28;20032;-55
2022/05/01 13:19:09;;;;;;;75.80;20.08;;;25.00;99.90;;;;;;5032900;28;20029;-54
2022/05/01 13:21:54;;;;;;;95.28;22.15;;;25.00;99.90;;;;;;5030630;28;20035;-54
2022/05/01 13:24:20;;;;;;;71.57;19.50;;;25.10;99.90;;;;;;5012779;28;20041;-52
2022/05/01 13:26:47;;;;;;;46.72;11.77;;;25.10;99.90;;;;;;5012800;28;20033;-54
2022/05/01 13:29:13;;;;;;;36.70;11.25;;;25.10;99.90;;;;;;5012658;28;20108;-54
2022/05/01 13:31:41;;;;;;;27.30;9.37;;;25.00;99.90;;;;;;5012529;28;20083;-53
2022/05/01 13:34:08;;;;;;;21.08;7.93;;;25.00;99.90;;;;;;5012575;28;20026;-54
2022/05/01 13:36:35;;;;;;;15.07;6.10;;;25.00;99.90;;;;;;5022287;28;20030;-55
2022/05/01 13:39:03;;;;;;;21.25;5.70;;;25.10;99.90;;;;;;5031421;28;20030;-55